Pagrindinis puslapis
METAR-TAF:

METAR-TAF

Oro uostai :

Gvidonija, Italija

platuma: 42-00N, ilguma: 012-44E, Aukštis: 88 m

Dabartinis oras

Ataskaita buvo paskelbta 1 valandą ir 30 minutes, ne 17:55 UTC
Vėjas 6 kt iš Vakarų/Pietvakarių
Temperatūra 29°C
Drėgmė 37%
Slėgis 1008 hPa
Matomumas 10 km arba daugiau
nėra debesų žemiau 1500 m ir nėra kamuolinių lietaus debesų

METAR: LIRG 061755Z 24006KT CAVOK 29/13 Q1008 RMK SKC MON NE LIB NC VIS MIN 9999 BLU

Laikas: 21:25 (19:25 UTC)

Prognozė

Ataskaita buvo paskelbta 5 valandos ir 25 minutes, ne 14:00 UTC
Prognozė galioja nuo 06 metu 15 UTC su 06 metu 24 UTC
Vėjas 10 kt iš Vakarų
Matomumas 10 km arba daugiau
Mažai debesys ne aukštis 3500 ft

TAF: LIRG 061400Z 0615/0624 26010KT 9999 FEW035

Orai ataskaitas ir orų prognozės (METAR, TAF).

turimą stotys yra geltonos ir raudonos taškus žemėlapyje.

Perkelti pele per norėdami pamatyti stoties vardą.

Tada spustelėkite, norėdami matyti oro stebėjimo ir prognozės.

Norėdami pakeisti žemėlapį: spustelėkite ant žalios mygtukų su juodo kryžiaus žemyn,; žalią mygtuką su brūkšneliu, jei norite nutolinti; arba žalių rodyklių gretimoms žemėlapius.


METAR-TAF: